Time;durP1;ratioP1;P1;durP2;ratioP2;P2;SDS_P1;SDS_P2;PMS_P1;PMS_P2;Temp;Humidity;BMP_temperature;BMP_pressure;BME280_temperature;BME280_humidity;BME280_pressure;Samples;Min_cycle;Max_cycle;Signal;HPM_P1;HPM_P2
2021/11/20 00:01:01;;;;;;;53.53;30.25;;;9.60;99.90;;;;;;5070579;28;20033;-57
2021/11/20 00:03:27;;;;;;;47.83;27.42;;;9.60;99.90;;;;;;5075557;28;20632;-58
2021/11/20 00:05:54;;;;;;;48.92;26.77;;;9.60;99.90;;;;;;5070575;28;20036;-56
2021/11/20 00:08:22;;;;;;;52.50;30.23;;;9.60;99.90;;;;;;5082006;28;20020;-56
2021/11/20 00:10:51;;;;;;;58.75;31.88;;;9.60;99.90;;;;;;5076852;28;20048;-57
2021/11/20 00:13:17;;;;;;;52.88;29.65;;;9.60;99.90;;;;;;5076502;28;20070;-52
2021/11/20 00:15:47;;;;;;;60.85;30.80;;;9.60;99.90;;;;;;5087333;28;20028;-58
2021/11/20 00:18:14;;;;;;;54.13;30.88;;;9.60;99.90;;;;;;5084179;28;20032;-56
2021/11/20 00:20:48;;;;;;;60.08;31.20;;;9.60;99.90;;;;;;5085791;28;20562;-55
2021/11/20 00:23:18;;;;;;;58.95;30.05;;;9.60;99.90;;;;;;5078158;28;20071;-56
2021/11/20 00:25:49;;;;;;;62.03;33.22;;;9.60;99.90;;;;;;5080061;28;20024;-55
2021/11/20 00:28:20;;;;;;;57.13;30.85;;;9.60;99.90;;;;;;5079128;28;20032;-55
2021/11/20 00:30:57;;;;;;;60.17;31.67;;;9.60;99.90;;;;;;5075582;28;20485;-58
2021/11/20 00:33:30;;;;;;;60.03;29.98;;;9.60;99.90;;;;;;5087204;28;20035;-55
2021/11/20 00:35:59;;;;;;;55.63;30.38;;;9.60;99.90;;;;;;5089248;28;20050;-57
2021/11/20 00:38:27;;;;;;;53.60;29.73;;;9.60;99.90;;;;;;5090824;28;20480;-55
2021/11/20 00:40:56;;;;;;;51.33;29.63;;;9.60;99.90;;;;;;5063841;28;20509;-54
2021/11/20 00:43:22;;;;;;;58.42;31.60;;;9.60;99.90;;;;;;5086967;28;20028;-55
2021/11/20 00:45:48;;;;;;;60.92;30.85;;;9.60;99.90;;;;;;5090113;28;20073;-56
2021/11/20 00:48:16;;;;;;;52.08;30.13;;;9.60;99.90;;;;;;5069596;28;20024;-55
2021/11/20 00:50:46;;;;;;;47.75;28.58;;;9.60;99.90;;;;;;5089006;28;20024;-55
2021/11/20 00:53:12;;;;;;;54.05;30.35;;;9.60;99.90;;;;;;5087887;28;20039;-58
2021/11/20 00:55:38;;;;;;;55.92;29.17;;;9.60;99.90;;;;;;5089782;28;20039;-58
2021/11/20 00:58:05;;;;;;;57.45;30.88;;;9.60;99.90;;;;;;5091517;28;20032;-53
2021/11/20 01:00:45;;;;;;;49.83;29.00;;;9.60;99.90;;;;;;5080584;28;20020;-54
2021/11/20 01:03:11;;;;;;;56.17;29.10;;;9.60;99.90;;;;;;5069707;28;20161;-56
2021/11/20 01:05:38;;;;;;;52.90;30.20;;;9.60;99.90;;;;;;5090263;28;20012;-56
2021/11/20 01:08:06;;;;;;;58.10;31.17;;;9.60;99.90;;;;;;5067697;28;20028;-57
2021/11/20 01:10:35;;;;;;;53.53;29.63;;;9.60;99.90;;;;;;5082186;28;20098;-56
2021/11/20 01:13:02;;;;;;;59.28;31.30;;;9.60;99.90;;;;;;5086208;28;20042;-53
2021/11/20 01:15:35;;;;;;;52.08;28.95;;;9.60;99.90;;;;;;5088322;28;20075;-55
2021/11/20 01:18:03;;;;;;;58.08;31.35;;;9.60;99.90;;;;;;5091248;28;20114;-55
2021/11/20 01:20:29;;;;;;;58.20;30.00;;;9.60;99.90;;;;;;5089153;28;20028;-55
2021/11/20 01:22:55;;;;;;;53.92;30.83;;;9.60;99.90;;;;;;5082952;28;20085;-53
2021/11/20 01:25:21;;;;;;;62.28;32.13;;;9.60;99.90;;;;;;5087583;28;20091;-56
2021/11/20 01:27:47;;;;;;;59.00;31.80;;;9.60;99.90;;;;;;5090985;28;20027;-57
2021/11/20 01:30:14;;;;;;;53.20;30.60;;;9.50;99.90;;;;;;5091192;28;20036;-56
2021/11/20 01:32:40;;;;;;;64.28;32.53;;;9.60;99.90;;;;;;5088410;28;20031;-56
2021/11/20 01:35:07;;;;;;;66.55;31.88;;;9.50;99.90;;;;;;5073042;28;20028;-58
2021/11/20 01:37:34;;;;;;;61.67;30.63;;;9.60;99.90;;;;;;5087605;28;20024;-57
2021/11/20 01:40:00;;;;;;;63.22;34.05;;;9.60;99.90;;;;;;5090262;28;20052;-51
2021/11/20 01:42:31;;;;;;;55.88;30.98;;;9.60;99.90;;;;;;5085668;28;20024;-56
2021/11/20 01:45:08;;;;;;;59.97;32.55;;;9.60;99.90;;;;;;5081409;28;20026;-57
2021/11/20 01:47:44;;;;;;;65.40;34.47;;;9.60;99.90;;;;;;5088952;28;20082;-49
2021/11/20 01:50:17;;;;;;;62.10;34.20;;;9.60;99.90;;;;;;5090810;28;20039;-56
2021/11/20 01:53:09;;;;;;;73.60;35.70;;;9.60;99.90;;;;;;5085312;28;20028;-55
2021/11/20 01:55:52;;;;;;;63.35;34.53;;;9.60;99.90;;;;;;5062422;28;20029;-52
2021/11/20 01:58:34;;;;;;;67.18;35.45;;;9.60;99.90;;;;;;5073061;28;20139;-55
2021/11/20 02:01:13;;;;;;;72.45;36.47;;;9.60;99.90;;;;;;5090336;28;20028;-56
2021/11/20 02:04:00;;;;;;;73.70;37.22;;;9.60;99.90;;;;;;5089895;28;20050;-51
2021/11/20 02:06:37;;;;;;;75.15;35.80;;;9.60;99.90;;;;;;5086650;28;20101;-53
2021/11/20 02:09:13;;;;;;;74.70;36.67;;;9.60;99.90;;;;;;5087112;28;20020;-58
2021/11/20 02:11:41;;;;;;;68.50;35.75;;;9.60;99.90;;;;;;5071484;28;20047;-53
2021/11/20 02:14:09;;;;;;;64.05;35.28;;;9.60;99.90;;;;;;5089736;28;20028;-56
2021/11/20 02:16:55;;;;;;;68.57;35.47;;;9.60;99.90;;;;;;5088277;28;20105;-56
2021/11/20 02:19:26;;;;;;;75.35;35.75;;;9.60;99.90;;;;;;5075876;28;20041;-56
2021/11/20 02:22:02;;;;;;;78.00;35.97;;;9.60;99.90;;;;;;5090234;28;20051;-56
2021/11/20 02:24:27;;;;;;;71.82;37.42;;;9.60;99.90;;;;;;5081412;28;20520;-53
2021/11/20 02:26:53;;;;;;;65.38;34.03;;;9.60;99.90;;;;;;5089711;28;20076;-57
2021/11/20 02:29:19;;;;;;;74.50;36.08;;;9.60;99.90;;;;;;5090268;28;20024;-54
2021/11/20 02:31:55;;;;;;;72.55;35.05;;;9.60;99.90;;;;;;5090020;28;20032;-53
2021/11/20 02:34:23;;;;;;;74.60;36.17;;;9.60;99.90;;;;;;5090280;28;20536;-53
2021/11/20 02:36:49;;;;;;;76.10;36.90;;;9.50;99.90;;;;;;5088997;28;20047;-52
2021/11/20 02:39:21;;;;;;;72.32;36.55;;;9.60;99.90;;;;;;5082762;28;20485;-48
2021/11/20 02:41:51;;;;;;;71.47;34.63;;;9.60;99.90;;;;;;5087631;28;20102;-55
2021/11/20 02:44:19;;;;;;;69.20;35.78;;;9.60;99.90;;;;;;5089456;28;20484;-55
2021/11/20 02:46:52;;;;;;;78.50;38.17;;;9.50;99.90;;;;;;5089838;28;20032;-55
2021/11/20 02:49:18;;;;;;;74.88;37.33;;;9.50;99.90;;;;;;5089560;28;20031;-56
2021/11/20 02:51:51;;;;;;;78.30;35.97;;;9.50;99.90;;;;;;5090057;28;20503;-57
2021/11/20 02:54:20;;;;;;;77.53;36.33;;;9.50;99.90;;;;;;5084846;28;20035;-58
2021/11/20 02:56:54;;;;;;;76.63;35.10;;;9.50;99.90;;;;;;5076501;28;20025;-56
2021/11/20 02:59:20;;;;;;;73.78;35.05;;;9.50;99.90;;;;;;5080933;28;20516;-55
2021/11/20 03:01:48;;;;;;;75.13;36.63;;;9.50;99.90;;;;;;5089277;28;20036;-57
2021/11/20 03:04:16;;;;;;;75.13;39.25;;;9.50;99.90;;;;;;5088350;28;20032;-56
2021/11/20 03:06:42;;;;;;;79.30;37.05;;;9.50;99.90;;;;;;5084784;28;20020;-55
2021/11/20 03:09:10;;;;;;;76.10;36.70;;;9.50;99.90;;;;;;5089358;28;20108;-56
2021/11/20 03:11:36;;;;;;;74.10;37.03;;;9.50;99.90;;;;;;5083613;28;20035;-58
2021/11/20 03:14:07;;;;;;;80.88;38.22;;;9.50;99.90;;;;;;5087482;28;20032;-57
2021/11/20 03:16:40;;;;;;;77.78;39.33;;;9.50;99.90;;;;;;5089418;28;20082;-56
2021/11/20 03:19:06;;;;;;;82.38;36.90;;;9.50;99.90;;;;;;5089609;28;20393;-57
2021/11/20 03:21:32;;;;;;;81.82;37.80;;;9.50;99.90;;;;;;5085958;28;20028;-58
2021/11/20 03:24:00;;;;;;;78.95;39.22;;;9.50;99.90;;;;;;5089238;28;20457;-57
2021/11/20 03:26:26;;;;;;;80.30;37.17;;;9.50;99.90;;;;;;5089482;28;20070;-56
2021/11/20 03:28:51;;;;;;;87.95;39.47;;;9.50;99.90;;;;;;5066391;28;20028;-56
2021/11/20 03:31:19;;;;;;;78.53;40.08;;;9.50;99.90;;;;;;5079914;28;20035;-59
2021/11/20 03:33:45;;;;;;;77.78;36.88;;;9.50;99.90;;;;;;5085523;28;20024;-55
2021/11/20 03:36:11;;;;;;;81.85;39.60;;;9.50;99.90;;;;;;5079690;28;20044;-56
2021/11/20 03:38:37;;;;;;;77.13;37.80;;;9.50;99.90;;;;;;5081856;28;20031;-55
2021/11/20 03:41:04;;;;;;;75.85;37.60;;;9.50;99.90;;;;;;5084146;28;20024;-57
2021/11/20 03:43:31;;;;;;;78.05;38.33;;;9.50;99.90;;;;;;5081405;28;20020;-58
2021/11/20 03:45:56;;;;;;;73.53;37.13;;;9.50;99.90;;;;;;5086328;28;20039;-57
2021/11/20 03:48:22;;;;;;;67.60;35.38;;;9.50;99.90;;;;;;5084815;28;20020;-56
2021/11/20 03:50:48;;;;;;;75.18;37.25;;;9.50;99.90;;;;;;5085093;28;20401;-57
2021/11/20 03:53:15;;;;;;;76.35;38.40;;;9.50;99.90;;;;;;5085316;28;20039;-57
2021/11/20 03:55:45;;;;;;;80.15;37.38;;;9.50;99.90;;;;;;5088569;28;20024;-55
2021/11/20 03:58:12;;;;;;;72.82;36.75;;;9.50;99.90;;;;;;5085555;28;20036;-58
2021/11/20 04:00:43;;;;;;;76.60;36.75;;;9.50;99.90;;;;;;5083740;28;20036;-53
2021/11/20 04:03:09;;;;;;;80.15;36.92;;;9.50;99.90;;;;;;5083843;28;20024;-54
2021/11/20 04:05:35;;;;;;;77.45;37.58;;;9.50;99.90;;;;;;5067203;28;20055;-54
2021/11/20 04:08:01;;;;;;;71.28;36.50;;;9.50;99.90;;;;;;5068263;28;20385;-53
2021/11/20 04:10:27;;;;;;;76.95;37.97;;;9.50;99.90;;;;;;5083143;28;20047;-57
2021/11/20 04:12:53;;;;;;;75.32;37.60;;;9.50;99.90;;;;;;5085536;28;20465;-55
2021/11/20 04:15:23;;;;;;;72.78;35.78;;;9.50;99.90;;;;;;5080823;28;20028;-57
2021/11/20 04:17:49;;;;;;;78.13;36.90;;;9.50;99.90;;;;;;5088811;28;20484;-57
2021/11/20 04:20:19;;;;;;;72.35;35.58;;;9.50;99.90;;;;;;5089714;28;20032;-58
2021/11/20 04:22:45;;;;;;;78.00;37.40;;;9.50;99.90;;;;;;5083186;28;20024;-59
2021/11/20 04:25:13;;;;;;;76.63;36.40;;;9.50;99.90;;;;;;5089887;28;20086;-57
2021/11/20 04:27:39;;;;;;;73.78;34.60;;;9.40;99.90;;;;;;5080677;28;20028;-57
2021/11/20 04:30:08;;;;;;;75.47;36.80;;;9.40;99.90;;;;;;5089071;28;20043;-56
2021/11/20 04:32:34;;;;;;;72.40;35.10;;;9.40;99.90;;;;;;5085175;28;20035;-58
2021/11/20 04:34:59;;;;;;;72.55;35.97;;;9.40;99.90;;;;;;5089649;28;20024;-57
2021/11/20 04:37:25;;;;;;;71.65;35.17;;;9.40;99.90;;;;;;5086777;28;20032;-57
2021/11/20 04:39:50;;;;;;;79.60;40.47;;;9.40;99.90;;;;;;5087199;28;20028;-56
2021/11/20 04:42:17;;;;;;;78.53;36.53;;;9.40;99.90;;;;;;5080446;28;20062;-57
2021/11/20 04:44:43;;;;;;;69.70;33.83;;;9.40;99.90;;;;;;5084155;28;20028;-58
2021/11/20 04:47:09;;;;;;;77.22;36.05;;;9.40;99.90;;;;;;5088317;28;20032;-57
2021/11/20 04:49:35;;;;;;;86.85;39.10;;;9.40;99.90;;;;;;5087691;28;20035;-58
2021/11/20 04:52:01;;;;;;;78.40;38.00;;;9.50;99.90;;;;;;5082199;28;20084;-57
2021/11/20 04:54:26;;;;;;;80.85;40.10;;;9.40;99.90;;;;;;5082994;28;20047;-56
2021/11/20 04:56:52;;;;;;;80.90;37.97;;;9.40;99.90;;;;;;5082134;28;20025;-56
2021/11/20 04:59:18;;;;;;;83.00;39.05;;;9.40;99.90;;;;;;5088247;28;20484;-58
2021/11/20 05:01:43;;;;;;;84.22;39.33;;;9.40;99.90;;;;;;5086653;28;20021;-57
2021/11/20 05:04:09;;;;;;;74.82;36.78;;;9.40;99.90;;;;;;5077596;28;20056;-57
2021/11/20 05:06:34;;;;;;;79.57;38.05;;;9.40;99.90;;;;;;5087417;28;20029;-57
2021/11/20 05:09:00;;;;;;;76.30;36.92;;;9.40;99.90;;;;;;5084114;28;20051;-57
2021/11/20 05:11:28;;;;;;;71.88;33.65;;;9.40;99.90;;;;;;5087211;28;20028;-56
2021/11/20 05:13:54;;;;;;;78.10;37.03;;;9.30;99.90;;;;;;5084266;28;20075;-55
2021/11/20 05:16:20;;;;;;;78.25;37.55;;;9.40;99.90;;;;;;5084283;28;20111;-54
2021/11/20 05:18:47;;;;;;;74.20;36.85;;;9.30;99.90;;;;;;5090287;28;20180;-57
2021/11/20 05:21:16;;;;;;;73.82;36.08;;;9.30;99.90;;;;;;5072975;28;20027;-55
2021/11/20 05:23:42;;;;;;;72.57;36.38;;;9.40;99.90;;;;;;5090237;28;20028;-58
2021/11/20 05:26:11;;;;;;;78.57;35.72;;;9.30;99.90;;;;;;5082507;28;20064;-58
2021/11/20 05:28:38;;;;;;;77.68;37.72;;;9.40;99.90;;;;;;5077961;28;20033;-56
2021/11/20 05:31:03;;;;;;;76.97;35.28;;;9.40;99.90;;;;;;5064737;28;20392;-57
2021/11/20 05:33:29;;;;;;;73.13;35.53;;;9.30;99.90;;;;;;5085115;28;20032;-58
2021/11/20 05:35:55;;;;;;;72.38;33.45;;;9.30;99.90;;;;;;5087753;28;20032;-53
2021/11/20 05:38:21;;;;;;;82.10;34.97;;;9.30;99.90;;;;;;5088179;28;20085;-60
2021/11/20 05:40:47;;;;;;;76.70;34.47;;;9.30;99.90;;;;;;5085106;28;20032;-59
2021/11/20 05:43:17;;;;;;;74.85;34.72;;;9.30;99.90;;;;;;5088519;28;20024;-59
2021/11/20 05:45:47;;;;;;;74.15;35.58;;;9.30;99.90;;;;;;5085567;28;20149;-59
2021/11/20 05:48:13;;;;;;;74.20;36.20;;;9.30;99.90;;;;;;5078511;28;20407;-58
2021/11/20 05:50:39;;;;;;;72.20;33.60;;;9.30;99.90;;;;;;5079641;28;20035;-56
2021/11/20 05:53:12;;;;;;;79.57;36.58;;;9.30;99.90;;;;;;5084134;28;20062;-57
2021/11/20 05:55:38;;;;;;;67.40;32.75;;;9.30;99.90;;;;;;5079553;28;20041;-56
2021/11/20 05:58:04;;;;;;;66.32;34.70;;;9.30;99.90;;;;;;5086479;28;20020;-57
2021/11/20 06:00:33;;;;;;;71.03;32.30;;;9.30;99.90;;;;;;5080159;28;20031;-57
2021/11/20 06:03:01;;;;;;;75.13;33.88;;;9.30;99.90;;;;;;5080613;28;20033;-53
2021/11/20 06:05:28;;;;;;;66.22;33.35;;;9.30;99.90;;;;;;5076157;28;20017;-56
2021/11/20 06:07:54;;;;;;;74.00;33.83;;;9.30;99.90;;;;;;5077691;28;20025;-58
2021/11/20 06:10:20;;;;;;;71.43;34.78;;;9.30;99.90;;;;;;5083620;28;20500;-58
2021/11/20 06:12:45;;;;;;;67.43;31.73;;;9.30;99.90;;;;;;5085334;28;20477;-58
2021/11/20 06:15:11;;;;;;;66.53;33.90;;;9.30;99.90;;;;;;5079925;28;20031;-60
2021/11/20 06:17:37;;;;;;;72.60;32.28;;;9.30;99.90;;;;;;5080404;28;20031;-57
2021/11/20 06:20:05;;;;;;;66.35;31.20;;;9.30;99.90;;;;;;5083747;28;20027;-58
2021/11/20 06:22:31;;;;;;;66.72;31.30;;;9.30;99.90;;;;;;5088380;28;20028;-56
2021/11/20 06:24:57;;;;;;;64.90;31.60;;;9.30;99.90;;;;;;5080599;28;20025;-58
2021/11/20 06:27:23;;;;;;;62.40;30.95;;;9.30;99.90;;;;;;5089004;28;20107;-57
2021/11/20 06:29:49;;;;;;;62.17;31.60;;;9.30;99.90;;;;;;5064807;28;20164;-59
2021/11/20 06:32:15;;;;;;;65.53;33.63;;;9.30;99.90;;;;;;5086605;28;20461;-57
2021/11/20 06:34:41;;;;;;;74.68;33.10;;;9.20;99.90;;;;;;5087876;28;20032;-58
2021/11/20 06:37:07;;;;;;;62.45;31.67;;;9.20;99.90;;;;;;5088709;28;20103;-58
2021/11/20 06:39:34;;;;;;;58.28;30.77;;;9.20;99.90;;;;;;5082045;28;20020;-55
2021/11/20 06:42:03;;;;;;;58.33;30.05;;;9.20;99.90;;;;;;5085051;28;20016;-57
2021/11/20 06:44:28;;;;;;;55.58;28.65;;;9.20;99.90;;;;;;5087490;28;20036;-57
2021/11/20 06:46:54;;;;;;;55.58;29.13;;;9.20;99.90;;;;;;5083792;28;20020;-57
2021/11/20 06:49:19;;;;;;;57.88;31.15;;;9.20;99.90;;;;;;5085284;28;20560;-57
2021/11/20 06:51:45;;;;;;;51.97;28.98;;;9.20;99.90;;;;;;5081412;28;20031;-54
2021/11/20 06:54:12;;;;;;;58.13;33.85;;;9.20;99.90;;;;;;5081098;28;20079;-59
2021/11/20 06:56:47;;;;;;;60.42;34.47;;;9.20;99.90;;;;;;5081969;28;20039;-56
2021/11/20 06:59:18;;;;;;;54.53;30.85;;;9.20;99.90;;;;;;5081019;28;20040;-56
2021/11/20 07:01:45;;;;;;;55.83;29.92;;;9.20;99.90;;;;;;5083629;28;20065;-58
2021/11/20 07:04:17;;;;;;;54.70;30.77;;;9.20;99.90;;;;;;5089121;28;20099;-56
2021/11/20 07:06:59;;;;;;;52.58;30.00;;;9.20;99.90;;;;;;5080609;28;20086;-58
2021/11/20 07:09:25;;;;;;;66.25;36.28;;;9.20;99.90;;;;;;5078684;28;20024;-54
2021/11/20 07:11:51;;;;;;;91.63;45.85;;;9.20;99.90;;;;;;5082761;28;20021;-58
2021/11/20 07:14:17;;;;;;;86.72;46.47;;;9.20;99.90;;;;;;5081000;28;20481;-59
2021/11/20 07:16:43;;;;;;;99.72;52.80;;;9.20;99.90;;;;;;5078689;28;20033;-56
2021/11/20 07:19:10;;;;;;;72.25;38.30;;;9.20;99.90;;;;;;5086255;28;20043;-56
2021/11/20 07:21:36;;;;;;;70.20;38.10;;;9.20;99.90;;;;;;5091887;28;20027;-56
2021/11/20 07:24:06;;;;;;;62.10;32.85;;;9.20;99.90;;;;;;5089592;28;20032;-58
2021/11/20 07:26:32;;;;;;;63.65;36.20;;;9.20;99.90;;;;;;5093544;28;20544;-57
2021/11/20 07:28:58;;;;;;;52.35;28.80;;;9.20;99.90;;;;;;5090074;28;20106;-58
2021/11/20 07:31:24;;;;;;;52.55;29.17;;;9.20;99.90;;;;;;5090331;28;20024;-58
2021/11/20 07:33:50;;;;;;;53.70;27.77;;;9.20;99.90;;;;;;5087470;28;20107;-54
2021/11/20 07:36:15;;;;;;;50.38;26.92;;;9.20;99.90;;;;;;5085736;28;20033;-56
2021/11/20 07:38:51;;;;;;;56.20;27.60;;;9.20;99.90;;;;;;5080940;28;20032;-58
2021/11/20 07:41:17;;;;;;;47.05;25.48;;;9.20;99.90;;;;;;5082870;28;20043;-55
2021/11/20 07:43:43;;;;;;;45.47;25.48;;;9.20;99.90;;;;;;5086636;28;20067;-57
2021/11/20 07:46:12;;;;;;;48.80;26.40;;;9.20;99.90;;;;;;5085591;28;20074;-57
2021/11/20 07:48:38;;;;;;;45.92;25.60;;;9.20;99.90;;;;;;5084167;28;20027;-58
2021/11/20 07:51:07;;;;;;;48.67;26.60;;;9.20;99.90;;;;;;5089333;28;20023;-56
2021/11/20 07:53:33;;;;;;;46.70;25.48;;;9.30;99.90;;;;;;5090682;28;20047;-57
2021/11/20 07:55:59;;;;;;;44.63;23.75;;;9.30;99.90;;;;;;5086530;28;20035;-58
2021/11/20 07:58:27;;;;;;;41.45;23.42;;;9.20;99.90;;;;;;5083133;28;20028;-55
2021/11/20 08:00:53;;;;;;;41.63;23.92;;;9.30;99.90;;;;;;5060876;28;20057;-59
2021/11/20 08:03:19;;;;;;;45.75;24.27;;;9.20;99.90;;;;;;5082604;28;20058;-60
2021/11/20 08:05:45;;;;;;;49.50;27.00;;;9.30;99.90;;;;;;5085042;28;20100;-58
2021/11/20 08:08:11;;;;;;;48.08;26.55;;;9.30;99.90;;;;;;5089978;28;20889;-56
2021/11/20 08:10:38;;;;;;;43.33;24.45;;;9.30;99.90;;;;;;5082421;28;20032;-58
2021/11/20 08:13:04;;;;;;;38.90;23.48;;;9.30;99.90;;;;;;5087186;28;20111;-58
2021/11/20 08:15:30;;;;;;;39.42;22.50;;;9.30;99.90;;;;;;5091151;28;20032;-58
2021/11/20 08:17:56;;;;;;;36.75;21.60;;;9.30;99.90;;;;;;5084040;28;20123;-62
2021/11/20 08:20:25;;;;;;;40.90;23.25;;;9.30;99.90;;;;;;5084679;28;20107;-57
2021/11/20 08:22:52;;;;;;;42.50;24.33;;;9.40;99.90;;;;;;5082537;28;20027;-59
2021/11/20 08:25:23;;;;;;;40.88;23.15;;;9.40;99.90;;;;;;5089578;28;20061;-56
2021/11/20 08:27:50;;;;;;;42.38;24.63;;;9.40;99.90;;;;;;5091866;28;20070;-56
2021/11/20 08:30:20;;;;;;;41.05;24.50;;;9.40;99.90;;;;;;5085916;28;20082;-57
2021/11/20 08:32:47;;;;;;;37.83;22.70;;;9.50;99.90;;;;;;5087305;28;20032;-57
2021/11/20 08:35:14;;;;;;;42.08;23.55;;;9.50;99.90;;;;;;5081630;28;20500;-57
2021/11/20 08:37:40;;;;;;;39.13;23.30;;;9.50;99.90;;;;;;5082857;28;20024;-58
2021/11/20 08:40:09;;;;;;;42.40;25.63;;;9.50;99.90;;;;;;5089903;28;20174;-57
2021/11/20 08:42:36;;;;;;;42.45;24.88;;;9.60;99.90;;;;;;5083016;28;20527;-57
2021/11/20 08:45:04;;;;;;;39.03;23.40;;;9.50;99.90;;;;;;5086439;28;20028;-57
2021/11/20 08:47:30;;;;;;;43.95;23.65;;;9.50;99.90;;;;;;5084240;28;20110;-55
2021/11/20 08:49:56;;;;;;;40.10;23.55;;;9.50;99.90;;;;;;5087384;28;20556;-57
2021/11/20 08:52:22;;;;;;;45.63;25.25;;;9.60;99.90;;;;;;5079524;28;20103;-56
2021/11/20 08:54:47;;;;;;;35.05;21.30;;;9.60;99.90;;;;;;5085631;28;20116;-60
2021/11/20 08:57:14;;;;;;;49.75;27.63;;;9.60;99.90;;;;;;5088918;28;20034;-57
2021/11/20 08:59:41;;;;;;;45.75;24.55;;;9.70;99.90;;;;;;5090689;28;20510;-58
2021/11/20 09:02:16;;;;;;;59.25;34.47;;;9.70;99.90;;;;;;5065258;28;20490;-57
2021/11/20 09:04:54;;;;;;;70.28;32.67;;;9.70;99.90;;;;;;5082979;28;20738;-57
2021/11/20 09:07:46;;;;;;;131.38;59.40;;;9.70;99.90;;;;;;5081280;28;20380;-55
2021/11/20 09:10:19;;;;;;;59.30;30.75;;;9.70;99.90;;;;;;5087921;28;20039;-57
2021/11/20 09:12:44;;;;;;;54.38;29.17;;;9.80;99.90;;;;;;5083040;28;20719;-58
2021/11/20 09:15:56;;;;;;;47.28;28.08;;;9.80;99.90;;;;;;5077450;28;20059;-55
2021/11/20 09:18:23;;;;;;;54.63;29.90;;;9.80;99.90;;;;;;4999913;28;20034;-55
2021/11/20 09:20:52;;;;;;;96.32;48.40;;;9.80;99.90;;;;;;5076589;28;20062;-59
2021/11/20 09:23:19;;;;;;;92.97;50.67;;;9.80;99.90;;;;;;5089114;28;20024;-58
2021/11/20 09:25:44;;;;;;;81.18;44.28;;;9.80;99.90;;;;;;5088867;28;20065;-58
2021/11/20 09:28:12;;;;;;;55.22;34.67;;;9.80;99.90;;;;;;5090426;28;20455;-57
2021/11/20 09:30:42;;;;;;;45.20;29.48;;;9.80;99.90;;;;;;5089764;28;20028;-57
2021/11/20 09:33:08;;;;;;;40.58;25.08;;;9.90;99.90;;;;;;5086818;28;20022;-56
2021/11/20 09:35:34;;;;;;;38.47;23.02;;;9.90;99.90;;;;;;5084565;28;20033;-56
2021/11/20 09:38:00;;;;;;;41.92;25.58;;;9.90;99.90;;;;;;5088556;28;20023;-55
2021/11/20 09:40:30;;;;;;;35.28;20.23;;;9.90;99.90;;;;;;5078527;28;20036;-57
2021/11/20 09:43:01;;;;;;;30.48;18.52;;;9.90;99.90;;;;;;5083623;28;20082;-58
2021/11/20 09:45:30;;;;;;;55.10;29.88;;;9.90;99.90;;;;;;5079937;28;20107;-57
2021/11/20 09:48:09;;;;;;;36.92;24.85;;;10.00;99.90;;;;;;5084658;28;20039;-59
2021/11/20 09:50:44;;;;;;;59.47;32.67;;;10.00;99.90;;;;;;5086947;28;20570;-58
2021/11/20 09:53:11;;;;;;;68.88;35.15;;;10.00;99.90;;;;;;5085846;28;20032;-58
2021/11/20 09:55:46;;;;;;;74.05;39.83;;;10.00;99.90;;;;;;5070825;28;20107;-59
2021/11/20 09:58:24;;;;;;;60.53;32.42;;;10.00;99.90;;;;;;5089990;28;20437;-57
2021/11/20 10:01:08;;;;;;;79.75;44.33;;;10.00;99.90;;;;;;5072308;28;20111;-58
2021/11/20 10:03:45;;;;;;;74.20;40.35;;;10.00;99.90;;;;;;5087839;28;20036;-57
2021/11/20 10:06:20;;;;;;;67.88;38.15;;;10.00;99.90;;;;;;5080707;28;20045;-60
2021/11/20 10:08:47;;;;;;;62.85;33.67;;;10.10;99.90;;;;;;5061003;28;20017;-57
2021/11/20 10:11:35;;;;;;;99.40;58.10;;;10.10;99.90;;;;;;5083099;28;20532;-57
2021/11/20 10:14:09;;;;;;;76.95;44.90;;;10.20;99.90;;;;;;5076470;28;20036;-58
2021/11/20 10:16:49;;;;;;;53.90;31.25;;;10.20;99.90;;;;;;5086423;28;20032;-58
2021/11/20 10:19:21;;;;;;;47.13;29.65;;;10.20;99.90;;;;;;5085881;28;20032;-58
2021/11/20 10:22:12;;;;;;;40.33;25.17;;;10.20;99.90;;;;;;5080420;28;20028;-57
2021/11/20 10:25:25;;;;;;;46.40;28.50;;;10.30;99.90;;;;;;5087707;28;20427;-59
2021/11/20 10:28:16;;;;;;;40.63;28.00;;;10.30;99.90;;;;;;5069195;28;20044;-57
2021/11/20 10:30:50;;;;;;;32.88;21.10;;;10.30;99.90;;;;;;5078623;28;20526;-56
2021/11/20 10:33:21;;;;;;;42.78;24.88;;;10.20;99.90;;;;;;5082281;28;20101;-57
2021/11/20 10:35:51;;;;;;;57.63;29.52;;;10.20;99.90;;;;;;5087954;28;20046;-60
2021/11/20 10:38:20;;;;;;;42.33;24.45;;;10.30;99.90;;;;;;5089337;28;20032;-59
2021/11/20 10:40:49;;;;;;;52.88;30.55;;;10.30;99.90;;;;;;5080036;28;20023;-60
2021/11/20 10:43:34;;;;;;;31.25;20.35;;;10.20;99.90;;;;;;5087325;28;20020;-58
2021/11/20 10:46:18;;;;;;;32.83;21.80;;;10.20;99.90;;;;;;5054541;28;20090;-58
2021/11/20 10:49:09;;;;;;;44.67;26.23;;;10.30;99.90;;;;;;5076780;28;20097;-61
2021/11/20 10:52:04;;;;;;;37.80;23.67;;;10.30;99.90;;;;;;5053276;28;20043;-58
2021/11/20 10:55:07;;;;;;;32.58;22.25;;;10.30;99.90;;;;;;5080738;28;20647;-57
2021/11/20 10:57:59;;;;;;;35.72;23.05;;;10.30;99.90;;;;;;5088000;28;20027;-59
2021/11/20 11:01:04;;;;;;;54.13;31.48;;;10.30;99.90;;;;;;5060927;28;20032;-54
2021/11/20 11:03:39;;;;;;;32.90;21.08;;;10.40;99.90;;;;;;5077286;28;20039;-58
2021/11/20 11:06:42;;;;;;;31.63;19.05;;;10.30;99.90;;;;;;5082400;28;20047;-56
2021/11/20 11:09:30;;;;;;;31.75;20.88;;;10.30;99.90;;;;;;5082691;28;20028;-57
2021/11/20 11:12:30;;;;;;;51.97;33.95;;;10.30;99.90;;;;;;5076713;28;20027;-57
2021/11/20 11:15:21;;;;;;;62.15;35.85;;;10.30;99.90;;;;;;5087673;28;20031;-54
2021/11/20 11:18:24;;;;;;;29.70;19.15;;;10.30;99.90;;;;;;5068061;28;20625;-57
2021/11/20 11:20:59;;;;;;;49.10;28.33;;;10.30;99.90;;;;;;5087120;28;20054;-57
2021/11/20 11:23:39;;;;;;;66.32;35.03;;;10.30;99.90;;;;;;5087238;28;20024;-56
2021/11/20 11:26:08;;;;;;;54.65;31.50;;;10.30;99.90;;;;;;5080233;28;20047;-55
2021/11/20 11:28:43;;;;;;;35.83;21.17;;;10.20;99.90;;;;;;5087063;28;20501;-57
2021/11/20 11:31:34;;;;;;;47.72;25.85;;;10.20;99.90;;;;;;5088972;28;20020;-58
2021/11/20 11:34:29;;;;;;;38.83;23.65;;;10.20;99.90;;;;;;5082913;28;20384;-59
2021/11/20 11:37:09;;;;;;;40.97;24.40;;;10.30;99.90;;;;;;5087169;28;20024;-58
2021/11/20 11:39:47;;;;;;;46.90;27.75;;;10.30;99.90;;;;;;5077162;28;20035;-57
2021/11/20 11:42:41;;;;;;;41.05;22.70;;;10.30;99.90;;;;;;5084680;28;20042;-54
2021/11/20 11:45:36;;;;;;;40.40;24.63;;;10.30;99.90;;;;;;5085001;28;20153;-59
2021/11/20 11:48:38;;;;;;;60.45;31.33;;;10.30;99.90;;;;;;5077397;28;20032;-59
2021/11/20 11:51:22;;;;;;;143.27;58.63;;;10.20;99.90;;;;;;5082136;28;20512;-57
2021/11/20 11:54:29;;;;;;;123.22;52.70;;;10.20;99.90;;;;;;5084318;28;20031;-59
2021/11/20 11:56:54;;;;;;;133.40;62.75;;;10.30;99.90;;;;;;5051527;28;20043;-59
2021/11/20 11:59:44;;;;;;;86.20;45.47;;;10.20;99.90;;;;;;5084283;28;20028;-58
2021/11/20 12:02:17;;;;;;;50.40;29.08;;;10.30;99.90;;;;;;5081187;28;20043;-55
2021/11/20 12:04:56;;;;;;;41.17;25.35;;;10.40;99.90;;;;;;5082052;28;20063;-57
2021/11/20 12:07:27;;;;;;;36.00;21.95;;;10.40;99.90;;;;;;5083370;28;20027;-56
2021/11/20 12:10:10;;;;;;;30.52;20.17;;;10.40;99.90;;;;;;5087730;28;20020;-57
2021/11/20 12:13:04;;;;;;;26.30;17.95;;;10.40;99.90;;;;;;5087458;28;20039;-56
2021/11/20 12:15:41;;;;;;;29.73;16.67;;;10.50;99.90;;;;;;5088797;28;20028;-56
2021/11/20 12:18:19;;;;;;;29.55;16.80;;;10.50;99.90;;;;;;5092670;28;20747;-57
2021/11/20 12:20:56;;;;;;;30.63;17.45;;;10.50;99.90;;;;;;5091473;28;20031;-60
2021/11/20 12:23:27;;;;;;;27.13;18.00;;;10.60;99.90;;;;;;5084945;28;20411;-55
2021/11/20 12:26:40;;;;;;;28.25;17.92;;;10.60;99.90;;;;;;5089175;28;20032;-59
2021/11/20 12:29:20;;;;;;;30.55;19.60;;;10.60;99.90;;;;;;5055338;28;20044;-58
2021/11/20 12:31:57;;;;;;;35.58;23.63;;;10.60;99.90;;;;;;5084490;28;20028;-59
2021/11/20 12:34:43;;;;;;;32.72;21.30;;;10.70;99.90;;;;;;5091938;28;20012;-58
2021/11/20 12:37:50;;;;;;;31.90;21.40;;;10.60;99.90;;;;;;5089676;28;20027;-52
2021/11/20 12:40:35;;;;;;;35.70;21.80;;;10.60;99.90;;;;;;5087977;28;20039;-57
2021/11/20 12:43:26;;;;;;;42.22;27.38;;;10.60;99.90;;;;;;5089938;28;20027;-57
2021/11/20 12:46:20;;;;;;;47.65;29.52;;;10.60;99.90;;;;;;5089418;28;20028;-58
2021/11/20 12:49:00;;;;;;;36.45;22.63;;;10.60;99.90;;;;;;5087005;28;20044;-57
2021/11/20 12:51:29;;;;;;;32.65;20.83;;;10.60;99.90;;;;;;5082220;28;20025;-58
2021/11/20 12:54:17;;;;;;;29.50;19.55;;;10.70;99.90;;;;;;5086476;28;20022;-57
2021/11/20 12:56:43;;;;;;;26.73;19.10;;;10.70;99.90;;;;;;5085078;28;20016;-58